createdAt,value
2022-11-09T00:00:46.894Z,86.93
2022-11-09T00:01:46.885Z,87.04
2022-11-09T00:02:46.873Z,86.93
2022-11-09T00:03:46.859Z,87.04
2022-11-09T00:04:46.865Z,87.13
2022-11-09T00:06:46.916Z,86.83
2022-11-09T00:07:46.806Z,86.73
2022-11-09T00:08:46.794Z,86.83
2022-11-09T00:09:46.877Z,86.83
2022-11-09T00:10:46.769Z,86.93
2022-11-09T00:11:46.760Z,86.83
2022-11-09T00:12:46.775Z,86.73
2022-11-09T00:13:46.732Z,86.49
2022-11-09T00:14:46.716Z,86.49
2022-11-09T00:15:46.708Z,86.59
2022-11-09T00:17:46.683Z,86.63
2022-11-09T00:18:46.664Z,86.79
2022-11-09T00:19:46.654Z,86.79
2022-11-09T00:20:48.329Z,86.69
2022-11-09T00:21:46.628Z,86.38
2022-11-09T00:22:46.615Z,86.49
2022-11-09T00:23:46.605Z,86.49
2022-11-09T00:24:46.589Z,86.49
2022-11-09T00:25:46.577Z,86.49
2022-11-09T00:26:46.566Z,86.18
2022-11-09T00:28:46.544Z,86.28
2022-11-09T00:29:46.529Z,85.98
2022-11-09T00:30:46.519Z,85.88
2022-11-09T00:31:46.502Z,85.83
2022-11-09T00:32:46.486Z,85.63
2022-11-09T00:33:46.475Z,85.53
2022-11-09T00:34:46.463Z,85.74
2022-11-09T00:35:46.450Z,85.74
2022-11-09T00:36:46.518Z,85.83
2022-11-09T00:37:46.534Z,85.94
2022-11-09T00:39:46.400Z,85.94
2022-11-09T00:40:46.388Z,86.24
2022-11-09T00:41:46.374Z,86.24
2022-11-09T00:42:46.362Z,86.24
2022-11-09T00:43:46.348Z,86.34
2022-11-09T00:44:46.337Z,86.34
2022-11-09T00:45:46.324Z,86.14
2022-11-09T00:46:46.313Z,86.14
2022-11-09T00:47:46.297Z,85.94
2022-11-09T00:48:46.285Z,85.94
2022-11-09T00:50:46.261Z,87.09
2022-11-09T00:51:46.248Z,87.30
2022-11-09T00:52:46.259Z,87.20
2022-11-09T00:53:46.220Z,87.20
2022-11-09T00:54:46.210Z,87.20
2022-11-09T00:55:46.197Z,87.30
2022-11-09T00:56:46.186Z,87.40
2022-11-09T00:57:46.171Z,87.70
2022-11-09T00:58:46.160Z,87.50
2022-11-09T00:59:46.146Z,87.76
2022-11-09T01:01:46.132Z,87.70
2022-11-09T01:02:46.110Z,87.81
2022-11-09T01:03:46.094Z,88.51
2022-11-09T01:04:46.084Z,88.31
2022-11-09T01:05:46.069Z,88.51
2022-11-09T01:06:46.086Z,88.82
2022-11-09T01:07:46.043Z,88.92
2022-11-09T01:08:46.053Z,89.12
2022-11-09T01:09:46.020Z,89.63
2022-11-09T01:10:46.006Z,89.73
2022-11-09T01:12:45.982Z,90.04
2022-11-09T01:13:45.969Z,90.65
2022-11-09T01:14:45.956Z,90.85
2022-11-09T01:15:45.943Z,90.96
2022-11-09T01:16:45.931Z,91.25
2022-11-09T01:17:45.916Z,91.46
2022-11-09T01:18:45.905Z,91.46
2022-11-09T01:19:45.891Z,91.46
2022-11-09T01:20:45.881Z,91.46
2022-11-09T01:21:45.865Z,91.56
2022-11-09T01:23:45.839Z,91.56
2022-11-09T01:24:45.850Z,91.77
2022-11-09T01:25:45.815Z,91.66
2022-11-09T01:26:45.803Z,91.87
2022-11-09T01:27:45.789Z,91.66
2022-11-09T01:28:45.776Z,92.07
2022-11-09T01:29:45.763Z,92.17
2022-11-09T01:30:45.754Z,92.37
2022-11-09T01:31:45.737Z,92.27
2022-11-09T01:32:45.726Z,92.27
2022-11-09T01:34:45.700Z,92.37
2022-11-09T01:35:45.687Z,92.58
2022-11-09T01:36:45.674Z,92.62
2022-11-09T01:37:45.669Z,92.82
2022-11-09T01:38:45.654Z,92.82
2022-11-09T01:39:45.638Z,92.82
2022-11-09T01:40:45.645Z,92.82
2022-11-09T01:41:45.612Z,92.82
2022-11-09T01:42:45.598Z,92.78
2022-11-09T01:43:45.584Z,92.88
2022-11-09T01:45:45.566Z,92.98
2022-11-09T01:46:45.548Z,92.88
2022-11-09T01:47:45.533Z,92.88
2022-11-09T01:48:45.523Z,92.58
2022-11-09T01:49:45.512Z,92.93
2022-11-09T01:50:45.495Z,93.02
2022-11-09T01:51:45.482Z,93.23
2022-11-09T01:52:45.472Z,93.02
2022-11-09T01:53:45.455Z,93.13
2022-11-09T01:54:45.445Z,93.13
2022-11-09T01:56:45.444Z,92.82
2022-11-09T01:57:45.406Z,92.82
2022-11-09T01:58:45.397Z,93.02
2022-11-09T01:59:45.381Z,93.02
2022-11-09T02:00:45.419Z,93.13
2022-11-09T02:01:45.490Z,93.13
2022-11-09T02:02:45.341Z,92.93
2022-11-09T02:03:45.328Z,93.02
2022-11-09T02:04:45.321Z,92.82
2022-11-09T02:05:45.302Z,92.72
2022-11-09T02:07:45.277Z,92.52
2022-11-09T02:08:45.266Z,92.52
2022-11-09T02:09:45.251Z,92.32
2022-11-09T02:10:45.242Z,92.41
2022-11-09T02:11:45.227Z,92.21
2022-11-09T02:12:45.236Z,92.52
2022-11-09T02:13:45.200Z,92.41
2022-11-09T02:14:45.191Z,92.32
2022-11-09T02:15:46.055Z,92.32
2022-11-09T02:16:45.162Z,92.12
2022-11-09T02:18:45.138Z,91.71
2022-11-09T02:19:45.123Z,91.46
2022-11-09T02:20:45.112Z,91.25
2022-11-09T02:21:45.099Z,91.36
2022-11-09T02:22:45.088Z,90.96
2022-11-09T02:23:45.075Z,90.85
2022-11-09T02:24:45.062Z,90.75
2022-11-09T02:25:45.048Z,91.05
2022-11-09T02:26:45.037Z,91.05
2022-11-09T02:27:45.025Z,90.85
2022-11-09T02:29:44.998Z,90.85
2022-11-09T02:30:44.984Z,90.75
2022-11-09T02:31:44.970Z,90.96
2022-11-09T02:32:44.960Z,91.05
2022-11-09T02:33:44.954Z,90.96
2022-11-09T02:34:44.934Z,90.96
2022-11-09T02:35:44.922Z,90.96
2022-11-09T02:36:44.910Z,90.96
2022-11-09T02:37:44.895Z,90.96
2022-11-09T02:38:44.887Z,91.16
2022-11-09T02:40:44.858Z,91.16
2022-11-09T02:41:44.845Z,91.16
2022-11-09T02:42:44.832Z,91.16
2022-11-09T02:43:44.818Z,91.36
2022-11-09T02:44:44.831Z,91.40
2022-11-09T02:45:44.792Z,91.77
2022-11-09T02:46:44.780Z,91.51
2022-11-09T02:47:44.768Z,91.51
2022-11-09T02:48:44.756Z,91.36
2022-11-09T02:49:44.743Z,91.46
2022-11-09T02:51:44.718Z,91.16
2022-11-09T02:52:44.705Z,91.51
2022-11-09T02:53:44.694Z,91.51
2022-11-09T02:54:44.681Z,91.40
2022-11-09T02:55:44.665Z,91.36
2022-11-09T02:56:44.653Z,91.40
2022-11-09T02:57:44.641Z,91.46
2022-11-09T02:58:44.631Z,91.36
2022-11-09T02:59:44.617Z,91.16
2022-11-09T03:00:44.690Z,91.36
2022-11-09T03:02:44.580Z,91.16
2022-11-09T03:03:44.567Z,91.05
2022-11-09T03:04:44.552Z,91.60
2022-11-09T03:05:44.544Z,91.56
2022-11-09T03:06:44.596Z,91.36
2022-11-09T03:07:44.518Z,91.25
2022-11-09T03:08:44.501Z,91.30
2022-11-09T03:09:44.488Z,91.51
2022-11-09T03:10:44.477Z,91.71
2022-11-09T03:11:44.461Z,91.71
2022-11-09T03:13:44.439Z,91.51
2022-11-09T03:14:44.427Z,91.60
2022-11-09T03:15:44.411Z,91.60
2022-11-09T03:16:50.063Z,91.51
2022-11-09T03:17:46.388Z,91.81
2022-11-09T03:18:44.374Z,91.60
2022-11-09T03:19:44.360Z,91.91
2022-11-09T03:20:44.350Z,91.60
2022-11-09T03:21:44.335Z,91.71
2022-11-09T03:22:44.323Z,91.91
2022-11-09T03:24:44.298Z,91.81
2022-11-09T03:25:44.283Z,91.40
2022-11-09T03:26:44.276Z,91.51
2022-11-09T03:27:44.259Z,91.40
2022-11-09T03:28:44.249Z,91.30
2022-11-09T03:29:44.233Z,91.51
2022-11-09T03:30:44.220Z,91.51
2022-11-09T03:31:44.206Z,91.60
2022-11-09T03:32:49.468Z,91.60
2022-11-09T03:34:44.170Z,91.51
2022-11-09T03:35:44.155Z,91.71
2022-11-09T03:36:44.146Z,91.40
2022-11-09T03:37:44.235Z,91.60
2022-11-09T03:38:44.117Z,91.30
2022-11-09T03:39:44.104Z,91.40
2022-11-09T03:40:44.094Z,91.30
2022-11-09T03:41:44.079Z,91.24
2022-11-09T03:42:44.067Z,91.40
2022-11-09T03:43:44.052Z,91.30
2022-11-09T03:45:44.028Z,90.89
2022-11-09T03:46:44.017Z,90.89
2022-11-09T03:47:44.002Z,90.79
2022-11-09T03:48:44.014Z,90.79
2022-11-09T03:49:43.975Z,90.79
2022-11-09T03:50:43.966Z,90.69
2022-11-09T03:51:43.949Z,90.69
2022-11-09T03:52:43.939Z,90.69
2022-11-09T03:53:43.925Z,90.94
2022-11-09T03:54:43.917Z,91.04
2022-11-09T03:56:43.892Z,90.79
2022-11-09T03:57:43.873Z,90.83
2022-11-09T03:58:43.861Z,90.79
2022-11-09T03:59:43.852Z,90.49
2022-11-09T04:00:43.837Z,90.39
2022-11-09T04:01:43.895Z,90.28
2022-11-09T04:02:43.809Z,90.28
2022-11-09T04:03:43.795Z,90.18
2022-11-09T04:04:43.811Z,90.39
2022-11-09T04:05:43.771Z,90.18
2022-11-09T04:07:43.744Z,90.08
2022-11-09T04:08:48.390Z,89.88
2022-11-09T04:09:43.717Z,89.88
2022-11-09T04:10:43.709Z,89.98
2022-11-09T04:11:43.689Z,89.88
2022-11-09T04:12:43.681Z,90.08
2022-11-09T04:13:43.672Z,90.18
2022-11-09T04:14:43.655Z,90.08
2022-11-09T04:15:43.641Z,90.28
2022-11-09T04:16:43.631Z,90.39
2022-11-09T04:18:43.604Z,90.69
2022-11-09T04:19:43.590Z,90.79
2022-11-09T04:20:43.601Z,90.79
2022-11-09T04:21:43.564Z,90.59
2022-11-09T04:22:43.552Z,90.49
2022-11-09T04:23:43.537Z,90.28
2022-11-09T04:24:43.531Z,90.49
2022-11-09T04:25:43.518Z,90.49
2022-11-09T04:26:43.503Z,90.49
2022-11-09T04:27:43.488Z,90.28
2022-11-09T04:29:43.465Z,90.39
2022-11-09T04:30:43.453Z,90.28
2022-11-09T04:31:43.437Z,89.88
2022-11-09T04:32:43.426Z,90.18
2022-11-09T04:33:43.413Z,89.88
2022-11-09T04:34:43.400Z,90.08
2022-11-09T04:35:43.386Z,89.78
2022-11-09T04:36:43.397Z,89.78
2022-11-09T04:37:43.364Z,89.78
2022-11-09T04:38:43.350Z,89.98
2022-11-09T04:40:43.324Z,89.98
2022-11-09T04:41:43.310Z,90.08
2022-11-09T04:42:43.298Z,90.08
2022-11-09T04:43:43.284Z,90.08
2022-11-09T04:44:43.273Z,90.18
2022-11-09T04:45:43.260Z,90.28
2022-11-09T04:46:43.247Z,90.08
2022-11-09T04:47:43.232Z,90.08
2022-11-09T04:48:43.223Z,90.08
2022-11-09T04:49:43.208Z,90.08
2022-11-09T04:51:43.186Z,89.88
2022-11-09T04:52:43.191Z,89.78
2022-11-09T04:53:43.158Z,89.78
2022-11-09T04:54:43.146Z,89.78
2022-11-09T04:55:43.135Z,89.78
2022-11-09T04:56:43.119Z,89.58
2022-11-09T04:57:43.107Z,89.58
2022-11-09T04:58:43.094Z,89.27
2022-11-09T04:59:43.082Z,89.06
2022-11-09T05:00:43.069Z,89.23
2022-11-09T05:02:43.043Z,89.47
2022-11-09T05:03:43.135Z,89.47
2022-11-09T05:04:43.018Z,89.67
2022-11-09T05:05:48.178Z,89.78
2022-11-09T05:06:43.086Z,89.88
2022-11-09T05:07:42.981Z,89.98
2022-11-09T05:08:42.990Z,89.78
2022-11-09T05:09:42.957Z,89.88
2022-11-09T05:10:42.946Z,89.98
2022-11-09T05:11:42.938Z,89.98
2022-11-09T05:13:42.906Z,90.08
2022-11-09T05:14:42.891Z,89.78
2022-11-09T05:15:42.880Z,89.88
2022-11-09T05:16:42.870Z,89.92
2022-11-09T05:17:42.854Z,89.98
2022-11-09T05:18:42.839Z,89.78
2022-11-09T05:19:42.830Z,89.78
2022-11-09T05:20:42.825Z,89.67
2022-11-09T05:21:42.803Z,89.98
2022-11-09T05:22:42.794Z,89.67
2022-11-09T05:24:42.787Z,89.88
2022-11-09T05:25:42.755Z,89.67
2022-11-09T05:26:42.740Z,89.88
2022-11-09T05:27:42.728Z,90.18
2022-11-09T05:28:42.714Z,90.08
2022-11-09T05:29:42.707Z,90.13
2022-11-09T05:30:42.688Z,90.43
2022-11-09T05:31:45.509Z,90.59
2022-11-09T05:32:42.663Z,90.39
2022-11-09T05:33:42.652Z,90.28
2022-11-09T05:35:42.628Z,90.18
2022-11-09T05:36:42.612Z,90.08
2022-11-09T05:37:42.600Z,90.33
2022-11-09T05:38:42.589Z,90.83
2022-11-09T05:39:42.574Z,91.38
2022-11-09T05:40:42.583Z,91.79
2022-11-09T05:41:42.552Z,92.10
2022-11-09T05:42:42.536Z,92.30
2022-11-09T05:43:42.526Z,92.20
2022-11-09T05:44:42.514Z,91.85
2022-11-09T05:46:42.484Z,90.94
2022-11-09T05:47:42.474Z,90.69
2022-11-09T05:48:42.460Z,90.28
2022-11-09T05:49:42.447Z,90.39
2022-11-09T05:50:42.627Z,90.28
2022-11-09T05:51:42.422Z,90.04
2022-11-09T05:52:42.409Z,89.84
2022-11-09T05:53:46.425Z,89.63
2022-11-09T05:54:42.386Z,89.88
2022-11-09T05:55:42.629Z,89.98
2022-11-09T05:57:42.346Z,89.98
2022-11-09T05:58:42.347Z,90.08
2022-11-09T05:59:42.321Z,90.08
2022-11-09T06:00:42.495Z,90.49
2022-11-09T06:01:42.340Z,90.69
2022-11-09T06:02:42.283Z,90.69
2022-11-09T06:03:42.274Z,90.89
2022-11-09T06:04:42.257Z,90.69
2022-11-09T06:05:42.249Z,90.79
2022-11-09T06:06:42.315Z,90.59
2022-11-09T06:08:42.223Z,90.89
2022-11-09T06:09:42.195Z,90.79
2022-11-09T06:10:42.201Z,91.00
2022-11-09T06:11:42.171Z,90.94
2022-11-09T06:12:42.185Z,91.10
2022-11-09T06:13:42.146Z,91.00
2022-11-09T06:14:42.127Z,91.00
2022-11-09T06:15:42.118Z,90.89
2022-11-09T06:16:42.105Z,90.69
2022-11-09T06:17:42.100Z,90.69
2022-11-09T06:19:42.066Z,91.10
2022-11-09T06:20:42.053Z,91.00
2022-11-09T06:21:42.042Z,90.69
2022-11-09T06:22:42.029Z,90.79
2022-11-09T06:23:42.017Z,91.00
2022-11-09T06:24:42.002Z,90.79
2022-11-09T06:25:41.993Z,90.69
2022-11-09T06:26:41.978Z,90.79
2022-11-09T06:27:41.965Z,90.89
2022-11-09T06:28:41.974Z,90.69
2022-11-09T06:30:41.930Z,90.69
2022-11-09T06:31:41.916Z,90.59
2022-11-09T06:32:41.903Z,90.49
2022-11-09T06:33:41.890Z,90.69
2022-11-09T06:34:41.875Z,90.59
2022-11-09T06:35:41.863Z,90.49
2022-11-09T06:36:41.850Z,90.49
2022-11-09T06:37:41.838Z,90.49
2022-11-09T06:38:41.830Z,90.28
2022-11-09T06:39:41.811Z,90.39
2022-11-09T06:41:46.203Z,90.59
2022-11-09T06:42:41.932Z,90.49
2022-11-09T06:43:41.762Z,90.59
2022-11-09T06:44:41.784Z,90.49
2022-11-09T06:45:41.738Z,90.59
2022-11-09T06:46:41.726Z,90.39
2022-11-09T06:47:41.710Z,90.39
2022-11-09T06:48:41.698Z,90.18
2022-11-09T06:49:41.685Z,90.18
2022-11-09T06:50:41.670Z,89.84
2022-11-09T06:52:41.647Z,89.78
2022-11-09T06:53:41.635Z,89.78
2022-11-09T06:54:41.622Z,89.67
2022-11-09T06:55:47.181Z,89.63
2022-11-09T06:56:41.595Z,89.78
2022-11-09T06:57:41.586Z,89.67
2022-11-09T06:58:41.573Z,89.78
2022-11-09T06:59:41.560Z,89.78
2022-11-09T07:00:41.568Z,89.58
2022-11-09T07:01:41.582Z,89.67
2022-11-09T07:03:41.509Z,89.67
2022-11-09T07:04:41.494Z,89.63
2022-11-09T07:05:41.485Z,89.43
2022-11-09T07:06:41.553Z,89.23
2022-11-09T07:07:41.459Z,89.23
2022-11-09T07:08:41.448Z,88.92
2022-11-09T07:09:41.431Z,88.92
2022-11-09T07:10:41.417Z,89.23
2022-11-09T07:11:41.407Z,89.23
2022-11-09T07:12:41.400Z,89.23
2022-11-09T07:14:41.367Z,89.47
2022-11-09T07:15:41.354Z,89.78
2022-11-09T07:16:41.362Z,89.94
2022-11-09T07:17:41.332Z,90.28
2022-11-09T07:18:41.313Z,90.55
2022-11-09T07:19:41.302Z,90.59
2022-11-09T07:20:41.286Z,91.10
2022-11-09T07:21:41.281Z,91.00
2022-11-09T07:22:41.261Z,91.30
2022-11-09T07:23:41.254Z,91.40
2022-11-09T07:25:41.224Z,91.60
2022-11-09T07:26:41.209Z,91.71
2022-11-09T07:27:41.200Z,91.40
2022-11-09T07:28:41.184Z,91.51
2022-11-09T07:29:41.172Z,91.30
2022-11-09T07:30:41.158Z,91.10
2022-11-09T07:31:41.148Z,91.40
2022-11-09T07:33:07.521Z,91.10
2022-11-09T07:33:43.120Z,91.30
2022-11-09T07:34:41.109Z,91.20
2022-11-09T07:36:41.083Z,90.96
2022-11-09T07:37:41.078Z,90.65
2022-11-09T07:38:41.061Z,90.85
2022-11-09T07:39:41.047Z,90.65
2022-11-09T07:40:41.031Z,90.44
2022-11-09T07:41:41.018Z,90.65
2022-11-09T07:42:41.002Z,90.44
2022-11-09T07:43:40.995Z,90.24
2022-11-09T07:44:40.978Z,90.04
2022-11-09T07:45:40.966Z,90.24
2022-11-09T07:47:40.945Z,90.04
2022-11-09T07:48:40.948Z,90.04
2022-11-09T07:49:40.914Z,89.84
2022-11-09T07:50:40.900Z,90.04
2022-11-09T07:51:40.887Z,90.24
2022-11-09T07:52:40.872Z,90.24
2022-11-09T07:53:40.880Z,89.94
2022-11-09T07:54:40.848Z,90.24
2022-11-09T07:55:40.834Z,90.14
2022-11-09T07:56:40.825Z,90.14
2022-11-09T07:58:40.793Z,90.65
2022-11-09T07:59:40.782Z,90.35
2022-11-09T08:00:40.770Z,90.55
2022-11-09T08:01:40.822Z,90.44
2022-11-09T08:02:40.740Z,90.24
2022-11-09T08:03:40.730Z,90.35
2022-11-09T08:04:40.738Z,90.04
2022-11-09T08:05:40.700Z,90.35
2022-11-09T08:06:40.751Z,90.44
2022-11-09T08:07:40.675Z,90.61
2022-11-09T08:09:40.648Z,90.35
2022-11-09T08:10:40.636Z,90.10
2022-11-09T08:11:40.621Z,89.80
2022-11-09T08:12:40.608Z,89.69
2022-11-09T08:13:40.595Z,89.69
2022-11-09T08:14:40.582Z,89.19
2022-11-09T08:15:40.569Z,89.14
2022-11-09T08:16:40.555Z,88.43
2022-11-09T08:17:40.542Z,88.13
2022-11-09T08:18:40.527Z,87.98
2022-11-09T08:20:40.531Z,87.74
2022-11-09T08:21:40.490Z,87.34
2022-11-09T08:22:40.474Z,87.05
2022-11-09T08:23:40.463Z,83.55
2022-11-09T08:24:40.448Z,79.49
2022-11-09T08:25:40.438Z,75.35
2022-11-09T08:26:40.425Z,72.63
2022-11-09T08:27:40.411Z,69.52
2022-11-09T08:28:40.396Z,70.09
2022-11-09T08:29:40.385Z,67.95
2022-11-09T08:31:40.359Z,66.78
2022-11-09T08:32:40.348Z,65.78
2022-11-09T08:33:40.335Z,64.98
2022-11-09T08:34:40.322Z,64.65
2022-11-09T08:35:40.312Z,66.78
2022-11-09T08:36:40.526Z,67.25
2022-11-09T08:37:40.284Z,67.91
2022-11-09T08:38:40.269Z,70.76
2022-11-09T08:39:40.258Z,74.01
2022-11-09T08:40:40.246Z,75.70
2022-11-09T08:42:40.219Z,74.78
2022-11-09T08:43:40.208Z,72.54
2022-11-09T08:44:40.417Z,72.00
2022-11-09T08:45:40.182Z,70.22
2022-11-09T08:46:41.595Z,68.51
2022-11-09T08:47:40.207Z,67.41
2022-11-09T08:48:40.143Z,68.01
2022-11-09T08:49:40.132Z,67.38
2022-11-09T08:50:40.122Z,67.61
2022-11-09T08:51:40.108Z,67.41
2022-11-09T08:53:40.082Z,65.98
2022-11-09T08:54:40.069Z,65.61
2022-11-09T08:55:40.058Z,64.48
2022-11-09T08:56:40.042Z,64.15
2022-11-09T08:57:40.235Z,62.49
2022-11-09T08:58:40.020Z,63.72
2022-11-09T08:59:40.008Z,63.12
2022-11-09T09:00:39.996Z,64.44
2022-11-09T09:01:40.115Z,67.54
2022-11-09T09:02:39.970Z,69.12
2022-11-09T09:04:39.946Z,72.43
2022-11-09T09:05:39.934Z,70.32
2022-11-09T09:06:40.003Z,68.35
2022-11-09T09:07:39.908Z,66.78
2022-11-09T09:08:39.926Z,67.48
2022-11-09T09:09:39.883Z,70.69
2022-11-09T09:10:39.874Z,71.96
2022-11-09T09:11:39.860Z,72.47
2022-11-09T09:12:39.849Z,72.83
2022-11-09T09:13:43.409Z,72.00
2022-11-09T09:15:39.811Z,68.18
2022-11-09T09:16:39.802Z,69.92
2022-11-09T09:17:39.786Z,71.63
2022-11-09T09:18:39.786Z,70.39
2022-11-09T09:19:39.760Z,69.72
2022-11-09T09:20:39.749Z,71.13
2022-11-09T09:21:39.734Z,72.54
2022-11-09T09:22:39.725Z,72.54
2022-11-09T09:23:39.710Z,72.27
2022-11-09T09:24:39.725Z,73.38
2022-11-09T09:26:39.685Z,74.86
2022-11-09T09:27:39.660Z,75.26
2022-11-09T09:28:39.648Z,76.07
2022-11-09T09:29:39.635Z,75.70
2022-11-09T09:30:39.622Z,76.04
2022-11-09T09:31:39.611Z,76.44
2022-11-09T09:32:39.596Z,76.85
2022-11-09T09:33:39.584Z,76.55
2022-11-09T09:34:39.574Z,76.89
2022-11-09T09:35:39.558Z,76.98
2022-11-09T09:37:39.533Z,77.13
2022-11-09T09:38:39.519Z,78.13
2022-11-09T09:39:39.504Z,78.54
2022-11-09T09:40:39.513Z,78.10
2022-11-09T09:41:39.478Z,77.89
2022-11-09T09:42:39.467Z,77.69
2022-11-09T09:43:42.957Z,77.60
2022-11-09T09:44:39.444Z,77.53
2022-11-09T09:45:39.428Z,78.27
2022-11-09T09:46:39.417Z,79.99
2022-11-09T09:48:39.393Z,79.89
2022-11-09T09:49:39.394Z,79.69
2022-11-09T09:50:39.369Z,79.79
2022-11-09T09:51:39.350Z,79.99
2022-11-09T09:52:39.341Z,79.31
2022-11-09T09:53:39.325Z,76.54
2022-11-09T09:54:39.319Z,73.44
2022-11-09T09:55:39.301Z,72.16
2022-11-09T09:56:39.315Z,72.60
2022-11-09T09:57:42.108Z,74.62
2022-11-09T09:59:39.251Z,75.87
2022-11-09T10:00:39.242Z,76.61
2022-11-09T10:01:39.224Z,78.19
2022-11-09T10:02:39.218Z,75.70
2022-11-09T10:03:39.198Z,73.91
2022-11-09T10:04:39.223Z,72.50
2022-11-09T10:05:39.173Z,72.30
2022-11-09T10:06:39.227Z,72.10
2022-11-09T10:07:39.148Z,73.24
2022-11-09T10:08:39.157Z,72.47
2022-11-09T10:10:39.110Z,73.44
2022-11-09T10:11:39.096Z,72.80
2022-11-09T10:12:39.111Z,73.37
2022-11-09T10:13:39.069Z,71.02
2022-11-09T10:14:39.063Z,68.24
2022-11-09T10:15:39.045Z,68.31
2022-11-09T10:16:39.034Z,67.44
2022-11-09T10:17:39.020Z,69.42
2022-11-09T10:18:39.010Z,68.75
2022-11-09T10:19:39.002Z,67.71
2022-11-09T10:21:38.969Z,67.95
2022-11-09T10:22:38.960Z,68.31
2022-11-09T10:23:38.946Z,69.08
2022-11-09T10:24:48.754Z,69.72
2022-11-09T10:26:03.202Z,69.55
2022-11-09T10:26:40.912Z,71.96
2022-11-09T10:27:38.896Z,73.61
2022-11-09T10:29:09.312Z,73.61
2022-11-09T10:29:40.869Z,73.91
2022-11-09T10:30:38.860Z,74.25
2022-11-09T10:32:38.833Z,76.03
2022-11-09T10:33:38.820Z,76.47
2022-11-09T10:34:38.809Z,77.49
2022-11-09T10:35:38.803Z,76.94
2022-11-09T10:36:38.784Z,76.94
2022-11-09T10:37:38.772Z,77.08
2022-11-09T10:38:38.759Z,76.98
2022-11-09T10:39:38.754Z,77.62
2022-11-09T10:40:38.730Z,77.72
2022-11-09T10:41:38.717Z,77.72
2022-11-09T10:43:38.691Z,79.51
2022-11-09T10:44:38.702Z,79.91
2022-11-09T10:45:38.667Z,80.26
2022-11-09T10:46:38.655Z,80.62
2022-11-09T10:47:38.643Z,81.17
2022-11-09T10:48:38.630Z,81.17
2022-11-09T10:49:38.612Z,81.67
2022-11-09T10:50:38.601Z,81.37
2022-11-09T10:51:38.589Z,81.57
2022-11-09T10:52:41.862Z,82.97
2022-11-09T10:54:38.554Z,84.08
2022-11-09T10:55:38.538Z,85.03
2022-11-09T10:57:00.680Z,84.83
2022-11-09T10:57:40.510Z,85.94
2022-11-09T10:58:38.497Z,86.65
2022-11-09T10:59:38.486Z,86.85
2022-11-09T11:00:38.507Z,87.96
2022-11-09T11:01:38.557Z,87.96
2022-11-09T11:02:38.447Z,88.17
2022-11-09T11:03:38.432Z,87.88
2022-11-09T11:05:38.407Z,87.57
2022-11-09T11:06:38.448Z,87.23
2022-11-09T11:07:38.382Z,87.09
2022-11-09T11:08:38.372Z,86.28
2022-11-09T11:09:38.361Z,85.92
2022-11-09T11:10:38.345Z,86.42
2022-11-09T11:11:38.440Z,86.52
2022-11-09T11:12:38.320Z,85.96
2022-11-09T11:13:38.309Z,86.97
2022-11-09T11:14:38.292Z,86.91
2022-11-09T11:16:38.298Z,86.85
2022-11-09T11:17:38.253Z,87.29
2022-11-09T11:18:38.242Z,87.86
2022-11-09T11:19:38.229Z,86.95
2022-11-09T11:20:38.217Z,85.98
2022-11-09T11:21:38.200Z,86.69
2022-11-09T11:22:38.189Z,87.09
2022-11-09T11:23:38.175Z,86.65
2022-11-09T11:24:38.164Z,85.88
2022-11-09T11:25:38.151Z,84.97
2022-11-09T11:27:38.124Z,84.97
2022-11-09T11:28:38.111Z,84.58
2022-11-09T11:29:38.102Z,82.66
2022-11-09T11:30:38.087Z,82.86
2022-11-09T11:31:38.070Z,83.41
2022-11-09T11:32:38.191Z,83.41
2022-11-09T11:33:38.045Z,83.81
2022-11-09T11:34:58.945Z,83.20
2022-11-09T11:35:40.021Z,82.86
2022-11-09T11:36:38.010Z,82.01
2022-11-09T11:38:37.986Z,81.47
2022-11-09T11:39:37.968Z,79.65
2022-11-09T11:40:37.957Z,80.76
2022-11-09T11:41:37.941Z,80.05
2022-11-09T11:42:37.931Z,79.45
2022-11-09T11:43:37.915Z,79.25
2022-11-09T11:44:37.907Z,80.16
2022-11-09T11:45:40.989Z,79.62
2022-11-09T11:46:37.882Z,78.97
2022-11-09T11:47:37.866Z,79.11
2022-11-09T11:49:37.841Z,77.56
2022-11-09T11:50:37.828Z,79.27
2022-11-09T11:51:37.815Z,77.89
2022-11-09T11:52:37.806Z,78.40
2022-11-09T11:53:43.064Z,79.41
2022-11-09T11:54:37.778Z,79.11
2022-11-09T11:55:37.765Z,78.24
2022-11-09T11:56:37.753Z,78.13
2022-11-09T11:57:37.739Z,78.24
2022-11-09T11:58:37.732Z,78.00
2022-11-09T12:00:37.703Z,78.33
2022-11-09T12:01:37.697Z,77.93
2022-11-09T12:02:37.765Z,77.73
2022-11-09T12:03:37.661Z,77.83
2022-11-09T12:04:37.678Z,77.13
2022-11-09T12:05:37.637Z,76.22
2022-11-09T12:06:39.542Z,76.31
2022-11-09T12:07:37.610Z,76.92
2022-11-09T12:08:37.598Z,75.81
2022-11-09T12:09:37.585Z,75.84
2022-11-09T12:11:37.558Z,76.35
2022-11-09T12:12:37.547Z,76.25
2022-11-09T12:13:37.533Z,76.66
2022-11-09T12:14:37.522Z,76.96
2022-11-09T12:15:37.505Z,76.89
2022-11-09T12:16:37.495Z,76.79
2022-11-09T12:17:37.479Z,76.39
2022-11-09T12:18:37.470Z,75.68
2022-11-09T12:19:37.453Z,75.57
2022-11-09T12:20:37.470Z,75.61
2022-11-09T12:22:37.416Z,77.61
2022-11-09T12:23:37.423Z,77.71
2022-11-09T12:24:37.390Z,79.13
2022-11-09T12:25:37.376Z,79.88
2022-11-09T12:26:37.366Z,81.20
2022-11-09T12:27:37.373Z,82.45
2022-11-09T12:28:37.339Z,81.84
2022-11-09T12:29:37.329Z,82.80
2022-11-09T12:30:37.312Z,82.59
2022-11-09T12:31:37.309Z,82.28
2022-11-09T12:33:41.992Z,82.80
2022-11-09T12:34:37.261Z,82.59
2022-11-09T12:35:37.266Z,82.86
2022-11-09T12:36:37.259Z,82.65
2022-11-09T12:37:37.220Z,82.65
2022-11-09T12:38:37.207Z,82.14
2022-11-09T12:39:37.192Z,82.95
2022-11-09T12:40:37.182Z,82.75
2022-11-09T12:41:37.167Z,82.72
2022-11-09T12:42:37.155Z,82.11
2022-11-09T12:44:37.129Z,82.41
2022-11-09T12:45:37.114Z,81.56
2022-11-09T12:46:37.108Z,80.89
2022-11-09T12:47:37.087Z,81.36
2022-11-09T12:48:37.082Z,81.46
2022-11-09T12:49:37.061Z,81.40
2022-11-09T12:50:37.050Z,81.76
2022-11-09T12:51:37.038Z,81.06
2022-11-09T12:52:37.055Z,80.75
2022-11-09T12:53:37.010Z,79.90
2022-11-09T12:55:36.984Z,79.03
2022-11-09T12:56:36.973Z,79.80
2022-11-09T12:57:36.959Z,78.79
2022-11-09T12:58:36.947Z,79.09
2022-11-09T12:59:36.933Z,78.85
2022-11-09T13:00:36.921Z,77.84
2022-11-09T13:01:36.969Z,78.55
2022-11-09T13:02:36.896Z,78.85
2022-11-09T13:03:36.959Z,78.85
2022-11-09T13:04:36.869Z,78.14
2022-11-09T13:06:36.968Z,78.00
2022-11-09T13:07:36.829Z,79.02
2022-11-09T13:08:36.843Z,78.04
2022-11-09T13:09:44.786Z,79.16
2022-11-09T13:10:36.792Z,79.05
2022-11-09T13:11:36.779Z,79.46
2022-11-09T13:12:36.764Z,79.46
2022-11-09T13:13:36.752Z,78.99
2022-11-09T13:14:36.742Z,80.14
2022-11-09T13:15:36.726Z,80.04
2022-11-09T13:17:36.700Z,80.24
2022-11-09T13:18:40.411Z,80.24
2022-11-09T13:19:36.685Z,80.55
2022-11-09T13:20:58.424Z,80.65
2022-11-09T13:21:38.649Z,80.35
2022-11-09T13:22:36.633Z,81.56
2022-11-09T13:23:59.375Z,80.95
2022-11-09T13:24:38.633Z,80.81
2022-11-09T13:25:36.598Z,80.61
2022-11-09T13:26:36.580Z,80.61
2022-11-09T13:28:36.555Z,80.31
2022-11-09T13:29:36.546Z,80.31
2022-11-09T13:30:36.539Z,80.71
2022-11-09T13:31:36.521Z,80.45
2022-11-09T13:32:36.503Z,80.81
2022-11-09T13:33:36.492Z,80.31
2022-11-09T13:34:36.480Z,80.51
2022-11-09T13:35:36.466Z,80.92
2022-11-09T13:36:36.454Z,80.61
2022-11-09T13:37:36.445Z,81.02
2022-11-09T13:39:36.415Z,81.02
2022-11-09T13:40:36.424Z,80.61
2022-11-09T13:42:36.378Z,80.35
2022-11-09T13:43:36.361Z,80.71
2022-11-09T13:44:38.840Z,80.71
2022-11-09T13:45:36.349Z,79.94
2022-11-09T13:46:36.322Z,80.31
2022-11-09T13:47:36.312Z,79.54
2022-11-09T13:48:36.296Z,80.01
2022-11-09T13:50:36.273Z,79.50
2022-11-09T13:51:36.259Z,79.80
2022-11-09T13:52:36.244Z,79.40
2022-11-09T13:53:36.234Z,79.09
2022-11-09T13:54:36.221Z,79.50
2022-11-09T13:55:36.207Z,79.80
2022-11-09T13:56:36.216Z,79.29
2022-11-09T13:57:36.185Z,79.40
2022-11-09T13:58:36.167Z,79.19
2022-11-09T13:59:36.156Z,79.19
2022-11-09T14:01:38.577Z,79.29
2022-11-09T14:02:36.116Z,79.29
2022-11-09T14:03:36.103Z,79.09
2022-11-09T14:04:36.089Z,77.78
2022-11-09T14:05:36.078Z,77.98
2022-11-09T14:06:36.134Z,78.49
2022-11-09T14:07:36.054Z,78.08
2022-11-09T14:08:40.277Z,77.78
2022-11-09T14:09:36.027Z,77.78
2022-11-09T14:10:36.011Z,77.17